sensor_id;sensor_type;location;lat;lon;timestamp;pressure;altitude;pressure_sealevel;temperature;humidity
71956;BME280;59829;50.562;6.258;2022-11-23T00:03:02;93945.63;;;5.93;100.00
71956;BME280;59829;50.562;6.258;2022-11-23T00:13:02;93966.72;;;6.03;100.00
71956;BME280;59829;50.562;6.258;2022-11-23T00:23:03;93956.03;;;5.90;100.00
71956;BME280;59829;50.562;6.258;2022-11-23T00:33:03;93956.53;;;6.03;100.00
71956;BME280;59829;50.562;6.258;2022-11-23T00:43:04;93969.09;;;6.14;100.00
71956;BME280;59829;50.562;6.258;2022-11-23T00:53:04;93959.94;;;5.94;100.00
71956;BME280;59829;50.562;6.258;2022-11-23T01:03:05;93974.09;;;5.87;100.00
71956;BME280;59829;50.562;6.258;2022-11-23T01:13:05;93975.84;;;5.96;100.00
71956;BME280;59829;50.562;6.258;2022-11-23T01:23:05;94000.72;;;5.83;100.00
71956;BME280;59829;50.562;6.258;2022-11-23T01:33:06;94007.13;;;5.87;100.00
71956;BME280;59829;50.562;6.258;2022-11-23T01:43:12;93999.09;;;6.01;100.00
71956;BME280;59829;50.562;6.258;2022-11-23T01:53:13;93992.78;;;6.05;100.00
71956;BME280;59829;50.562;6.258;2022-11-23T02:03:14;93999.38;;;5.98;100.00
71956;BME280;59829;50.562;6.258;2022-11-23T02:13:15;94011.81;;;6.01;100.00
71956;BME280;59829;50.562;6.258;2022-11-23T02:23:31;94014.91;;;5.95;100.00
71956;BME280;59829;50.562;6.258;2022-11-23T02:33:36;94007.66;;;6.00;100.00
71956;BME280;59829;50.562;6.258;2022-11-23T02:43:37;94010.88;;;5.83;100.00
71956;BME280;59829;50.562;6.258;2022-11-23T02:53:38;94006.19;;;5.88;100.00
71956;BME280;59829;50.562;6.258;2022-11-23T03:03:38;94004.19;;;5.82;100.00
71956;BME280;59829;50.562;6.258;2022-11-23T03:13:39;94049.53;;;5.86;100.00
71956;BME280;59829;50.562;6.258;2022-11-23T03:23:39;94091.63;;;5.89;100.00
71956;BME280;59829;50.562;6.258;2022-11-23T03:33:39;94023.88;;;5.80;100.00
71956;BME280;59829;50.562;6.258;2022-11-23T03:43:40;94023.06;;;5.79;100.00
71956;BME280;59829;50.562;6.258;2022-11-23T03:53:40;94025.75;;;5.68;100.00
71956;BME280;59829;50.562;6.258;2022-11-23T04:03:40;94015.16;;;5.72;100.00
71956;BME280;59829;50.562;6.258;2022-11-23T04:13:40;94011.16;;;5.70;100.00
71956;BME280;59829;50.562;6.258;2022-11-23T04:23:41;94008.47;;;5.81;100.00
71956;BME280;59829;50.562;6.258;2022-11-23T04:33:41;94023.47;;;5.74;100.00
71956;BME280;59829;50.562;6.258;2022-11-23T04:43:41;94031.50;;;5.80;100.00
71956;BME280;59829;50.562;6.258;2022-11-23T04:53:42;94030.16;;;5.75;100.00
71956;BME280;59829;50.562;6.258;2022-11-23T05:03:42;94035.50;;;5.72;100.00
71956;BME280;59829;50.562;6.258;2022-11-23T05:13:42;94023.06;;;5.69;100.00
71956;BME280;59829;50.562;6.258;2022-11-23T05:23:43;94033.13;;;5.61;100.00
71956;BME280;59829;50.562;6.258;2022-11-23T05:33:43;94026.44;;;5.60;100.00
71956;BME280;59829;50.562;6.258;2022-11-23T05:43:43;94018.50;;;5.83;100.00
71956;BME280;59829;50.562;6.258;2022-11-23T05:53:43;94017.84;;;5.81;100.00
71956;BME280;59829;50.562;6.258;2022-11-23T06:03:44;94007.16;;;5.67;100.00
71956;BME280;59829;50.562;6.258;2022-11-23T06:13:47;94020.03;;;5.47;100.00
71956;BME280;59829;50.562;6.258;2022-11-23T06:23:48;94012.28;;;5.09;100.00
71956;BME280;59829;50.562;6.258;2022-11-23T06:33:48;94005.47;;;5.00;100.00
71956;BME280;59829;50.562;6.258;2022-11-23T06:43:48;93997.31;;;4.87;100.00
71956;BME280;59829;50.562;6.258;2022-11-23T06:53:49;94011.84;;;4.85;100.00
71956;BME280;59829;50.562;6.258;2022-11-23T07:03:49;94017.31;;;4.71;100.00
71956;BME280;59829;50.562;6.258;2022-11-23T07:13:49;94027.97;;;4.65;100.00
71956;BME280;59829;50.562;6.258;2022-11-23T07:23:50;94006.38;;;4.70;100.00
71956;BME280;59829;50.562;6.258;2022-11-23T07:33:50;94025.03;;;4.60;100.00
71956;BME280;59829;50.562;6.258;2022-11-23T07:43:50;94035.22;;;4.69;100.00
71956;BME280;59829;50.562;6.258;2022-11-23T07:53:50;94033.06;;;4.74;100.00
71956;BME280;59829;50.562;6.258;2022-11-23T08:03:51;94044.31;;;4.91;100.00
71956;BME280;59829;50.562;6.258;2022-11-23T08:13:51;94029.50;;;4.96;100.00
71956;BME280;59829;50.562;6.258;2022-11-23T08:23:51;94039.00;;;5.13;100.00
71956;BME280;59829;50.562;6.258;2022-11-23T08:33:52;94034.34;;;5.28;100.00
71956;BME280;59829;50.562;6.258;2022-11-23T08:43:52;94044.75;;;5.54;100.00
71956;BME280;59829;50.562;6.258;2022-11-23T08:53:52;94049.66;;;6.04;100.00
71956;BME280;59829;50.562;6.258;2022-11-23T09:03:53;94052.19;;;6.04;100.00
71956;BME280;59829;50.562;6.258;2022-11-23T09:13:54;94052.38;;;5.93;100.00
71956;BME280;59829;50.562;6.258;2022-11-23T09:23:54;94065.19;;;6.01;100.00
71956;BME280;59829;50.562;6.258;2022-11-23T09:33:55;94048.88;;;6.68;100.00
71956;BME280;59829;50.562;6.258;2022-11-23T09:44:02;94025.28;;;6.93;100.00
71956;BME280;59829;50.562;6.258;2022-11-23T09:54:29;93986.47;;;7.09;100.00
71956;BME280;59829;50.562;6.258;2022-11-23T10:04:34;93965.72;;;7.22;99.49
71956;BME280;59829;50.562;6.258;2022-11-23T10:24:53;93936.78;;;7.23;96.85
71956;BME280;59829;50.562;6.258;2022-11-23T10:35:01;93948.69;;;7.40;99.65
71956;BME280;59829;50.562;6.258;2022-11-23T10:45:03;93930.81;;;7.32;97.58
71956;BME280;59829;50.562;6.258;2022-11-23T10:55:05;93922.25;;;7.93;93.00
71956;BME280;59829;50.562;6.258;2022-11-23T11:15:27;93895.16;;;7.92;91.74
71956;BME280;59829;50.562;6.258;2022-11-23T11:25:33;93918.59;;;7.18;92.87
71956;BME280;59829;50.562;6.258;2022-11-23T11:35:37;93891.25;;;8.56;89.03
71956;BME280;59829;50.562;6.258;2022-11-23T11:45:42;93884.59;;;8.71;85.39
71956;BME280;59829;50.562;6.258;2022-11-23T11:55:50;93890.03;;;9.25;81.68
71956;BME280;59829;50.562;6.258;2022-11-23T12:05:53;93892.56;;;9.42;82.14
71956;BME280;59829;50.562;6.258;2022-11-23T12:26:24;93860.59;;;10.94;75.10
71956;BME280;59829;50.562;6.258;2022-11-23T12:46:39;93838.19;;;12.07;67.78
71956;BME280;59829;50.562;6.258;2022-11-23T13:17:30;93838.16;;;10.96;67.73
71956;BME280;59829;50.562;6.258;2022-11-23T14:08:25;93824.66;;;7.75;91.63
71956;BME280;59829;50.562;6.258;2022-11-23T14:18:53;93835.00;;;7.39;95.88
71956;BME280;59829;50.562;6.258;2022-11-23T14:29:18;93851.09;;;7.14;100.00
71956;BME280;59829;50.562;6.258;2022-11-23T14:39:35;93865.72;;;6.94;100.00
71956;BME280;59829;50.562;6.258;2022-11-23T14:49:49;93877.91;;;6.47;100.00
71956;BME280;59829;50.562;6.258;2022-11-23T14:59:58;93909.16;;;6.12;100.00
71956;BME280;59829;50.562;6.258;2022-11-23T15:10:16;93951.47;;;6.03;100.00
71956;BME280;59829;50.562;6.258;2022-11-23T15:20:20;93976.34;;;6.09;100.00
71956;BME280;59829;50.562;6.258;2022-11-23T15:30:29;94010.13;;;5.63;100.00
71956;BME280;59829;50.562;6.258;2022-11-23T15:40:34;94024.84;;;5.59;100.00
71956;BME280;59829;50.562;6.258;2022-11-23T15:50:43;94053.97;;;5.36;100.00
71956;BME280;59829;50.562;6.258;2022-11-23T16:01:10;94035.53;;;5.14;100.00
71956;BME280;59829;50.562;6.258;2022-11-23T16:11:28;94063.06;;;5.29;100.00
71956;BME280;59829;50.562;6.258;2022-11-23T16:21:29;94090.56;;;5.14;100.00
71956;BME280;59829;50.562;6.258;2022-11-23T16:31:40;94087.63;;;5.38;100.00
71956;BME280;59829;50.562;6.258;2022-11-23T16:41:41;94101.16;;;5.29;100.00
71956;BME280;59829;50.562;6.258;2022-11-23T16:51:41;94110.09;;;5.33;100.00
71956;BME280;59829;50.562;6.258;2022-11-23T17:01:43;94142.19;;;5.43;100.00
71956;BME280;59829;50.562;6.258;2022-11-23T17:11:46;94160.78;;;5.44;100.00
71956;BME280;59829;50.562;6.258;2022-11-23T17:21:49;94171.09;;;5.62;100.00
71956;BME280;59829;50.562;6.258;2022-11-23T17:31:50;94195.69;;;5.61;100.00
71956;BME280;59829;50.562;6.258;2022-11-23T17:41:50;94201.28;;;5.55;100.00
71956;BME280;59829;50.562;6.258;2022-11-23T17:51:51;94227.78;;;5.72;100.00
71956;BME280;59829;50.562;6.258;2022-11-23T18:01:51;94233.00;;;5.80;100.00
71956;BME280;59829;50.562;6.258;2022-11-23T18:11:51;94252.19;;;5.94;100.00
71956;BME280;59829;50.562;6.258;2022-11-23T18:21:52;94269.00;;;5.75;100.00
71956;BME280;59829;50.562;6.258;2022-11-23T18:31:52;94287.25;;;5.90;100.00
71956;BME280;59829;50.562;6.258;2022-11-23T18:41:52;94307.59;;;6.10;100.00
71956;BME280;59829;50.562;6.258;2022-11-23T18:51:52;94327.91;;;6.00;100.00
71956;BME280;59829;50.562;6.258;2022-11-23T19:01:53;94346.28;;;6.23;100.00
71956;BME280;59829;50.562;6.258;2022-11-23T19:11:53;94347.50;;;6.28;100.00
71956;BME280;59829;50.562;6.258;2022-11-23T19:21:54;94355.81;;;6.50;100.00
71956;BME280;59829;50.562;6.258;2022-11-23T19:31:54;94378.84;;;6.58;100.00
71956;BME280;59829;50.562;6.258;2022-11-23T19:41:54;94401.91;;;6.66;100.00
71956;BME280;59829;50.562;6.258;2022-11-23T19:51:54;94417.31;;;6.64;100.00
71956;BME280;59829;50.562;6.258;2022-11-23T20:01:56;94426.28;;;6.69;100.00
71956;BME280;59829;50.562;6.258;2022-11-23T20:11:56;94448.38;;;6.68;100.00
71956;BME280;59829;50.562;6.258;2022-11-23T20:21:56;94443.16;;;6.70;100.00
71956;BME280;59829;50.562;6.258;2022-11-23T20:31:57;94472.34;;;6.75;100.00
71956;BME280;59829;50.562;6.258;2022-11-23T20:41:57;94476.50;;;6.76;100.00
71956;BME280;59829;50.562;6.258;2022-11-23T20:51:58;94502.13;;;7.04;100.00
71956;BME280;59829;50.562;6.258;2022-11-23T21:01:59;94507.50;;;7.01;100.00
71956;BME280;59829;50.562;6.258;2022-11-23T21:12:00;94513.13;;;6.94;100.00
71956;BME280;59829;50.562;6.258;2022-11-23T21:22:19;94525.97;;;6.93;100.00
71956;BME280;59829;50.562;6.258;2022-11-23T21:32:19;94533.50;;;6.94;100.00
71956;BME280;59829;50.562;6.258;2022-11-23T21:42:20;94538.31;;;6.98;100.00
71956;BME280;59829;50.562;6.258;2022-11-23T21:52:20;94553.59;;;6.98;100.00
71956;BME280;59829;50.562;6.258;2022-11-23T22:02:20;94554.91;;;6.92;100.00
71956;BME280;59829;50.562;6.258;2022-11-23T22:12:20;94572.34;;;6.97;100.00
71956;BME280;59829;50.562;6.258;2022-11-23T22:22:22;94580.09;;;6.85;100.00
71956;BME280;59829;50.562;6.258;2022-11-23T22:32:22;94568.56;;;6.91;100.00
71956;BME280;59829;50.562;6.258;2022-11-23T22:42:22;94584.66;;;6.91;100.00
71956;BME280;59829;50.562;6.258;2022-11-23T22:52:23;94592.66;;;6.77;100.00
71956;BME280;59829;50.562;6.258;2022-11-23T23:02:23;94613.78;;;6.68;100.00
71956;BME280;59829;50.562;6.258;2022-11-23T23:12:23;94619.19;;;6.54;100.00
71956;BME280;59829;50.562;6.258;2022-11-23T23:22:23;94632.00;;;6.73;100.00
71956;BME280;59829;50.562;6.258;2022-11-23T23:32:25;94640.53;;;6.62;100.00
71956;BME280;59829;50.562;6.258;2022-11-23T23:42:25;94652.88;;;6.67;100.00
71956;BME280;59829;50.562;6.258;2022-11-23T23:52:26;94648.53;;;6.58;100.00
